createdAt,value
2023-03-21T00:01:07.492Z,9.73
2023-03-21T00:03:36.432Z,9.70
2023-03-21T00:06:09.267Z,9.65
2023-03-21T00:08:39.865Z,9.69
2023-03-21T00:11:10.714Z,9.60
2023-03-21T00:13:42.089Z,9.57
2023-03-21T00:16:21.391Z,9.57
2023-03-21T00:18:58.050Z,9.60
2023-03-21T00:22:03.607Z,9.63
2023-03-21T00:24:22.604Z,9.59
2023-03-21T00:26:51.555Z,9.58
2023-03-21T00:29:20.584Z,9.50
2023-03-21T00:31:49.712Z,9.53
2023-03-21T00:34:26.719Z,9.61
2023-03-21T00:37:06.974Z,9.60
2023-03-21T00:39:36.154Z,9.53
2023-03-21T00:42:05.593Z,9.45
2023-03-21T00:44:36.566Z,9.42
2023-03-21T00:47:07.755Z,9.47
2023-03-21T00:49:38.202Z,9.57
2023-03-21T00:52:20.136Z,9.46
2023-03-21T00:54:53.553Z,9.43
2023-03-21T00:57:37.553Z,9.48
2023-03-21T01:00:10.214Z,9.51
2023-03-21T01:03:02.559Z,9.57
2023-03-21T01:05:53.662Z,9.57
2023-03-21T01:08:28.211Z,9.57
2023-03-21T01:11:04.194Z,9.61
2023-03-21T01:13:36.291Z,9.55
2023-03-21T01:16:08.170Z,9.45
2023-03-21T01:18:39.507Z,9.52
2023-03-21T01:21:11.301Z,9.52
2023-03-21T01:23:42.153Z,9.45
2023-03-21T01:26:12.711Z,9.37
2023-03-21T01:28:43.357Z,9.29
2023-03-21T01:31:24.331Z,9.24
2023-03-21T01:33:53.307Z,9.24
2023-03-21T01:36:25.537Z,9.22
2023-03-21T01:38:55.217Z,9.23
2023-03-21T01:41:42.048Z,9.27
2023-03-21T01:44:17.012Z,9.23
2023-03-21T01:46:57.385Z,9.29
2023-03-21T01:49:38.939Z,9.46
2023-03-21T01:52:20.986Z,9.31
2023-03-21T01:54:57.565Z,9.21
2023-03-21T01:57:40.396Z,9.26
2023-03-21T02:00:15.591Z,9.34
2023-03-21T02:02:52.281Z,9.18
2023-03-21T02:05:28.423Z,9.07
2023-03-21T02:07:57.690Z,9.04
2023-03-21T02:10:27.344Z,9.01
2023-03-21T02:13:07.723Z,8.96
2023-03-21T02:15:38.596Z,8.99
2023-03-21T02:18:15.557Z,9.13
2023-03-21T02:21:10.536Z,9.21
2023-03-21T02:23:58.696Z,9.17
2023-03-21T02:26:57.962Z,9.19
2023-03-21T02:29:55.424Z,9.21
2023-03-21T02:32:38.096Z,9.29
2023-03-21T02:35:25.321Z,9.26
2023-03-21T02:38:00.761Z,9.26
2023-03-21T02:40:36.773Z,9.27
2023-03-21T02:43:22.598Z,9.16
2023-03-21T02:45:57.336Z,9.00
2023-03-21T02:48:44.834Z,9.07
2023-03-21T02:51:23.264Z,9.01
2023-03-21T02:54:23.772Z,9.04
2023-03-21T02:56:50.117Z,9.05
2023-03-21T02:59:21.471Z,9.00
2023-03-21T03:01:52.721Z,8.99
2023-03-21T03:04:23.868Z,8.94
2023-03-21T03:07:08.598Z,8.95
2023-03-21T03:09:49.242Z,9.03
2023-03-21T03:12:28.459Z,9.10
2023-03-21T03:15:06.168Z,9.13
2023-03-21T03:17:45.772Z,9.23
2023-03-21T03:20:24.737Z,9.14
2023-03-21T03:23:00.733Z,9.02
2023-03-21T03:25:43.074Z,9.09
2023-03-21T03:28:15.445Z,9.14
2023-03-21T03:31:00.917Z,9.13
2023-03-21T03:33:38.628Z,9.12
2023-03-21T03:36:28.370Z,9.15
2023-03-21T03:39:00.855Z,9.10
2023-03-21T03:41:33.160Z,9.10
2023-03-21T03:44:15.283Z,9.00
2023-03-21T03:46:51.886Z,8.96
2023-03-21T03:49:25.604Z,9.03
2023-03-21T03:51:59.706Z,9.13
2023-03-21T03:54:33.785Z,9.12
2023-03-21T03:57:03.098Z,9.08
2023-03-21T03:59:33.924Z,9.09
2023-03-21T04:02:03.208Z,9.02
2023-03-21T04:04:32.103Z,9.03
2023-03-21T04:07:03.150Z,9.02
2023-03-21T04:09:43.612Z,9.14
2023-03-21T04:12:12.984Z,9.14
2023-03-21T04:14:47.196Z,9.10
2023-03-21T04:17:16.978Z,9.04
2023-03-21T04:19:46.488Z,9.13
2023-03-21T04:22:16.780Z,9.07
2023-03-21T04:24:45.742Z,8.97
2023-03-21T04:27:14.662Z,9.00
2023-03-21T04:29:53.150Z,8.98
2023-03-21T04:32:35.855Z,9.11
2023-03-21T04:35:21.095Z,9.21
2023-03-21T04:38:02.983Z,9.26
2023-03-21T04:40:32.006Z,9.17
2023-03-21T04:43:01.415Z,9.11
2023-03-21T04:45:30.567Z,9.09
2023-03-21T04:47:59.559Z,9.13
2023-03-21T04:50:28.665Z,9.09
2023-03-21T04:52:57.562Z,9.11
2023-03-21T04:55:29.114Z,9.22
2023-03-21T04:57:58.178Z,9.17
2023-03-21T05:00:27.227Z,9.06
2023-03-21T05:02:57.377Z,8.96
2023-03-21T05:05:26.909Z,8.94
2023-03-21T05:07:55.917Z,8.98
2023-03-21T05:10:25.026Z,9.06
2023-03-21T05:12:54.024Z,9.00
2023-03-21T05:15:23.183Z,8.92
2023-03-21T05:17:52.353Z,8.96
2023-03-21T05:20:21.511Z,8.97
2023-03-21T05:22:51.544Z,9.00
2023-03-21T05:25:20.871Z,8.93
2023-03-21T05:27:53.723Z,8.84
2023-03-21T05:30:23.015Z,8.82
2023-03-21T05:32:52.126Z,8.92
2023-03-21T05:35:21.296Z,8.98
2023-03-21T05:37:50.246Z,8.91
2023-03-21T05:40:19.438Z,8.96
2023-03-21T05:42:48.629Z,8.96
2023-03-21T05:45:17.757Z,8.89
2023-03-21T05:47:46.804Z,8.86
2023-03-21T05:50:15.704Z,8.99
2023-03-21T05:52:44.637Z,8.99
2023-03-21T05:55:13.461Z,9.00
2023-03-21T05:57:42.498Z,9.01
2023-03-21T06:00:13.918Z,9.03
2023-03-21T06:02:43.049Z,9.02
2023-03-21T06:05:12.548Z,8.99
2023-03-21T06:07:41.433Z,8.96
2023-03-21T06:10:12.360Z,8.91
2023-03-21T06:12:42.729Z,8.93
2023-03-21T06:15:13.456Z,8.92
2023-03-21T06:17:42.477Z,8.96
2023-03-21T06:20:13.400Z,8.94
2023-03-21T06:22:42.558Z,8.95
2023-03-21T06:25:11.767Z,8.88
2023-03-21T06:27:40.955Z,8.94
2023-03-21T06:30:12.534Z,9.01
2023-03-21T06:32:41.606Z,9.10
2023-03-21T06:35:11.181Z,9.04
2023-03-21T06:37:40.364Z,9.07
2023-03-21T06:40:11.657Z,9.14
2023-03-21T06:42:40.833Z,9.12
2023-03-21T06:45:11.434Z,9.08
2023-03-21T06:47:40.567Z,9.03
2023-03-21T06:50:11.761Z,8.99
2023-03-21T06:52:40.656Z,8.90
2023-03-21T06:55:10.812Z,8.93
2023-03-21T06:57:39.810Z,8.96
2023-03-21T07:00:12.835Z,8.94
2023-03-21T07:02:41.748Z,9.01
2023-03-21T07:05:11.467Z,9.13
2023-03-21T07:07:40.793Z,9.15
2023-03-21T07:10:12.028Z,9.07
2023-03-21T07:12:40.927Z,9.06
2023-03-21T07:15:12.023Z,9.02
2023-03-21T07:17:41.066Z,9.04
2023-03-21T07:20:13.089Z,9.09
2023-03-21T07:22:42.143Z,9.13
2023-03-21T07:25:12.141Z,9.16
2023-03-21T07:27:42.094Z,9.14
2023-03-21T07:30:13.586Z,9.24
2023-03-21T07:32:42.938Z,9.27
2023-03-21T07:35:15.730Z,9.26
2023-03-21T07:37:45.381Z,9.24
2023-03-21T07:40:15.984Z,9.19
2023-03-21T07:42:45.011Z,9.12
2023-03-21T07:45:15.543Z,9.13
2023-03-21T07:47:44.878Z,9.14
2023-03-21T07:50:14.017Z,9.10
2023-03-21T07:52:43.143Z,9.11
2023-03-21T07:55:12.750Z,9.06
2023-03-21T07:57:41.780Z,9.06
2023-03-21T08:00:13.561Z,9.05
2023-03-21T08:02:42.627Z,9.00
2023-03-21T08:05:11.976Z,9.18
2023-03-21T08:07:40.954Z,9.26
2023-03-21T08:10:12.472Z,9.26
2023-03-21T08:12:41.635Z,9.24
2023-03-21T08:15:12.815Z,9.26
2023-03-21T08:17:45.206Z,9.29
2023-03-21T08:20:16.666Z,9.32
2023-03-21T08:22:45.705Z,9.30
2023-03-21T08:25:17.512Z,9.35
2023-03-21T08:27:48.026Z,9.35
2023-03-21T08:30:19.779Z,9.34
2023-03-21T08:32:49.065Z,9.31
2023-03-21T08:35:20.036Z,9.30
2023-03-21T08:37:49.235Z,9.33
2023-03-21T08:40:20.316Z,9.38
2023-03-21T08:42:49.324Z,9.47
2023-03-21T08:45:19.151Z,9.37
2023-03-21T08:47:48.288Z,9.25
2023-03-21T08:50:19.751Z,9.31
2023-03-21T08:52:49.562Z,9.28
2023-03-21T08:55:19.781Z,9.28
2023-03-21T08:57:48.988Z,9.23
2023-03-21T09:00:20.263Z,9.22
2023-03-21T09:02:52.274Z,9.18
2023-03-21T09:05:22.580Z,9.25
2023-03-21T09:07:52.531Z,9.36
2023-03-21T09:10:23.559Z,9.40
2023-03-21T09:12:54.528Z,9.55
2023-03-21T09:15:24.693Z,9.58
2023-03-21T09:17:55.652Z,9.53
2023-03-21T09:20:30.156Z,9.38
2023-03-21T09:22:59.601Z,9.35
2023-03-21T09:25:30.652Z,9.29
2023-03-21T09:27:59.947Z,9.26
2023-03-21T09:30:29.852Z,9.20
2023-03-21T09:33:00.450Z,9.09
2023-03-21T09:35:30.640Z,9.11
2023-03-21T09:38:00.216Z,9.21
2023-03-21T09:40:47.006Z,9.29
2023-03-21T09:43:32.816Z,9.32
2023-03-21T09:46:09.468Z,9.34
2023-03-21T09:48:54.381Z,9.30
2023-03-21T09:51:29.877Z,9.32
2023-03-21T09:54:04.782Z,9.29
2023-03-21T09:56:34.751Z,9.35
2023-03-21T09:59:06.835Z,9.43
2023-03-21T10:01:41.809Z,9.48
2023-03-21T10:04:16.469Z,9.46
2023-03-21T10:06:46.259Z,9.49
2023-03-21T10:09:21.250Z,9.58
2023-03-21T10:11:54.507Z,9.62
2023-03-21T10:14:29.887Z,9.62
2023-03-21T10:17:01.485Z,9.68
2023-03-21T10:19:30.756Z,9.65
2023-03-21T10:22:02.678Z,9.55
2023-03-21T10:24:35.314Z,9.59
2023-03-21T10:27:05.505Z,9.64
2023-03-21T10:29:42.124Z,9.67
2023-03-21T10:32:13.759Z,9.50
2023-03-21T10:34:45.793Z,9.44
2023-03-21T10:37:16.974Z,9.33
2023-03-21T10:39:49.326Z,9.48
2023-03-21T10:42:23.493Z,9.59
2023-03-21T10:44:57.002Z,9.70
2023-03-21T10:47:28.183Z,9.80
2023-03-21T10:50:10.093Z,9.92
2023-03-21T10:52:45.596Z,10.05
2023-03-21T10:55:23.205Z,10.09
2023-03-21T10:57:59.785Z,10.07
2023-03-21T11:00:36.266Z,10.12
2023-03-21T11:03:07.041Z,10.21
2023-03-21T11:05:39.028Z,10.13
2023-03-21T11:08:13.212Z,10.09
2023-03-21T11:10:54.490Z,10.14
2023-03-21T11:13:33.094Z,10.16
2023-03-21T11:16:08.516Z,10.23
2023-03-21T11:18:42.406Z,10.31
2023-03-21T11:21:14.474Z,10.33
2023-03-21T11:23:47.585Z,10.46
2023-03-21T11:26:23.872Z,10.42
2023-03-21T11:28:54.194Z,10.38
2023-03-21T11:31:38.288Z,10.44
2023-03-21T11:34:09.838Z,10.41
2023-03-21T11:36:39.600Z,10.31
2023-03-21T11:39:33.216Z,10.32
2023-03-21T11:42:02.637Z,10.22
2023-03-21T11:44:35.282Z,10.09
2023-03-21T11:47:04.394Z,10.07
2023-03-21T11:49:33.416Z,10.16
2023-03-21T11:52:21.337Z,10.23
2023-03-21T11:55:23.584Z,10.25
2023-03-21T11:58:13.952Z,10.36
2023-03-21T12:00:54.363Z,10.42
2023-03-21T12:03:47.420Z,10.49
2023-03-21T12:06:25.557Z,10.56
2023-03-21T12:09:06.233Z,10.53
2023-03-21T12:11:49.070Z,10.50
2023-03-21T12:14:28.065Z,10.50
2023-03-21T12:17:10.768Z,10.60
2023-03-21T12:20:01.616Z,10.78
2023-03-21T12:22:39.962Z,11.01
2023-03-21T12:25:14.057Z,11.10
2023-03-21T12:27:52.166Z,11.15
2023-03-21T12:30:39.539Z,11.25
2023-03-21T12:33:25.134Z,11.26
2023-03-21T12:36:10.741Z,11.27
2023-03-21T12:38:44.503Z,11.30
2023-03-21T12:41:27.112Z,11.28
2023-03-21T12:44:03.188Z,11.30
2023-03-21T12:46:36.780Z,11.50
2023-03-21T12:49:14.331Z,11.57
2023-03-21T12:51:47.862Z,11.68
2023-03-21T12:54:25.671Z,11.79
2023-03-21T12:56:59.571Z,11.78
2023-03-21T12:59:36.621Z,11.61
2023-03-21T13:02:19.041Z,11.40
2023-03-21T13:04:59.497Z,11.26
2023-03-21T13:07:33.264Z,11.16
2023-03-21T13:10:05.182Z,11.21
2023-03-21T13:12:48.761Z,11.13
2023-03-21T13:15:44.482Z,11.27
2023-03-21T13:18:21.194Z,11.17
2023-03-21T13:20:53.833Z,11.07
2023-03-21T13:23:25.501Z,11.12
2023-03-21T13:25:57.920Z,11.27
2023-03-21T13:28:31.665Z,11.19
2023-03-21T13:31:21.827Z,11.11
2023-03-21T13:33:53.537Z,11.02
2023-03-21T13:36:26.928Z,10.96
2023-03-21T13:39:01.818Z,10.99
2023-03-21T13:41:35.466Z,10.91
2023-03-21T13:44:23.463Z,10.83
2023-03-21T13:47:02.497Z,10.86
2023-03-21T13:49:34.872Z,10.93
2023-03-21T13:52:27.329Z,11.03
2023-03-21T13:54:57.371Z,11.14
2023-03-21T13:57:39.507Z,11.22
2023-03-21T14:00:29.429Z,11.23
2023-03-21T14:03:05.982Z,11.27
2023-03-21T14:05:36.825Z,11.29
2023-03-21T14:08:24.752Z,11.27
2023-03-21T14:11:06.727Z,11.30
2023-03-21T14:13:48.343Z,11.29
2023-03-21T14:16:21.966Z,11.31
2023-03-21T14:18:56.019Z,11.43
2023-03-21T14:21:29.073Z,11.50
2023-03-21T14:24:02.742Z,11.46
2023-03-21T14:26:34.657Z,11.36
2023-03-21T14:29:09.583Z,11.29
2023-03-21T14:31:47.430Z,11.35
2023-03-21T14:34:17.990Z,11.41
2023-03-21T14:36:56.893Z,11.43
2023-03-21T14:39:30.203Z,11.55
2023-03-21T14:42:05.560Z,11.58
2023-03-21T14:44:53.990Z,11.61
2023-03-21T14:47:27.066Z,11.55
2023-03-21T14:49:56.714Z,11.64
2023-03-21T14:52:30.751Z,11.63
2023-03-21T14:55:01.936Z,11.58
2023-03-21T14:57:33.459Z,11.53
2023-03-21T15:00:11.930Z,11.54
2023-03-21T15:02:43.507Z,11.55
2023-03-21T15:05:19.749Z,11.47
2023-03-21T15:07:57.188Z,11.24
2023-03-21T15:10:30.221Z,11.19
2023-03-21T15:13:01.830Z,11.11
2023-03-21T15:15:32.340Z,11.04
2023-03-21T15:18:07.881Z,10.97
2023-03-21T15:20:39.916Z,11.00
2023-03-21T15:23:15.690Z,11.02
2023-03-21T15:25:45.691Z,10.97
2023-03-21T15:28:17.006Z,10.88
2023-03-21T15:30:51.431Z,10.96
2023-03-21T15:33:21.327Z,11.04
2023-03-21T15:35:55.103Z,10.99
2023-03-21T15:38:30.225Z,10.86
2023-03-21T15:41:25.951Z,10.79
2023-03-21T15:44:05.466Z,10.75
2023-03-21T15:46:42.391Z,10.70
2023-03-21T15:49:24.885Z,10.77
2023-03-21T15:51:57.251Z,10.80
2023-03-21T15:54:29.756Z,10.84
2023-03-21T15:57:04.138Z,10.75
2023-03-21T15:59:36.498Z,10.63
2023-03-21T16:02:11.321Z,10.61
2023-03-21T16:04:58.397Z,10.65
2023-03-21T16:07:27.981Z,10.66
2023-03-21T16:10:01.723Z,10.62
2023-03-21T16:12:30.772Z,10.57
2023-03-21T16:14:59.646Z,10.55
2023-03-21T16:17:36.308Z,10.52
2023-03-21T16:20:14.069Z,10.56
2023-03-21T16:22:43.108Z,10.58
2023-03-21T16:25:12.338Z,10.56
2023-03-21T16:27:42.141Z,10.46
2023-03-21T16:30:15.188Z,10.36
2023-03-21T16:32:44.028Z,10.46
2023-03-21T16:35:13.583Z,10.32
2023-03-21T16:37:43.062Z,10.21
2023-03-21T16:40:23.270Z,10.18
2023-03-21T16:42:52.300Z,10.12
2023-03-21T16:45:21.380Z,10.14
2023-03-21T16:47:51.375Z,9.99
2023-03-21T16:50:31.224Z,9.85
2023-03-21T16:53:00.773Z,9.78
2023-03-21T16:55:32.650Z,9.78
2023-03-21T16:58:02.551Z,9.71
2023-03-21T17:00:32.543Z,9.65
2023-03-21T17:03:03.349Z,9.57
2023-03-21T17:05:32.435Z,9.51
2023-03-21T17:08:02.597Z,9.54
2023-03-21T17:10:34.163Z,9.47
2023-03-21T17:13:03.537Z,9.46
2023-03-21T17:15:33.003Z,9.40
2023-03-21T17:18:02.287Z,9.27
2023-03-21T17:20:33.909Z,9.10
2023-03-21T17:23:03.184Z,9.04
2023-03-21T17:25:32.474Z,9.04
2023-03-21T17:28:02.205Z,9.04
2023-03-21T17:30:37.444Z,8.93
2023-03-21T17:33:07.728Z,8.85
2023-03-21T17:35:38.505Z,8.87
2023-03-21T17:38:12.947Z,8.84
2023-03-21T17:40:43.068Z,8.69
2023-03-21T17:43:17.840Z,8.69
2023-03-21T17:45:49.610Z,8.68
2023-03-21T17:48:21.704Z,8.65
2023-03-21T17:50:50.941Z,8.59
2023-03-21T17:53:20.409Z,8.50
2023-03-21T17:55:51.894Z,8.38
2023-03-21T17:58:22.142Z,8.34
2023-03-21T18:00:51.003Z,8.29
2023-03-21T18:03:22.967Z,8.24
2023-03-21T18:05:55.493Z,8.11
2023-03-21T18:08:24.545Z,8.01
2023-03-21T18:10:54.760Z,8.02
2023-03-21T18:13:24.009Z,8.04
2023-03-21T18:15:53.729Z,8.01
2023-03-21T18:18:22.694Z,7.90
2023-03-21T18:20:54.467Z,7.86
2023-03-21T18:23:24.173Z,7.81
2023-03-21T18:25:57.991Z,7.77
2023-03-21T18:28:28.025Z,7.71
2023-03-21T18:31:12.683Z,7.68
2023-03-21T18:33:48.097Z,7.60
2023-03-21T18:36:25.357Z,7.56
2023-03-21T18:39:05.184Z,7.62
2023-03-21T18:41:36.488Z,7.51
2023-03-21T18:44:23.626Z,7.41
2023-03-21T18:46:55.425Z,7.36
2023-03-21T18:50:05.857Z,7.32
2023-03-21T18:52:18.984Z,7.30
2023-03-21T18:54:49.470Z,7.30
2023-03-21T18:57:38.698Z,7.20
2023-03-21T19:00:13.891Z,7.09
2023-03-21T19:03:13.066Z,7.06
2023-03-21T19:05:50.981Z,7.10
2023-03-21T19:08:23.797Z,7.02
2023-03-21T19:10:59.574Z,6.89
2023-03-21T19:13:33.668Z,6.85
2023-03-21T19:16:05.669Z,6.85
2023-03-21T19:18:53.430Z,6.79
2023-03-21T19:21:27.724Z,6.76
2023-03-21T19:24:29.316Z,6.71
2023-03-21T19:26:58.658Z,6.67
2023-03-21T19:29:29.752Z,6.64
2023-03-21T19:32:04.457Z,6.56
2023-03-21T19:34:35.198Z,6.55
2023-03-21T19:37:05.958Z,6.51
2023-03-21T19:39:39.190Z,6.54
2023-03-21T19:42:22.712Z,6.47
2023-03-21T19:44:54.358Z,6.39
2023-03-21T19:47:32.828Z,6.30
2023-03-21T19:50:43.960Z,6.22
2023-03-21T19:52:59.058Z,6.20
2023-03-21T19:55:35.402Z,6.13
2023-03-21T19:58:09.375Z,6.13
2023-03-21T20:00:41.146Z,6.18
2023-03-21T20:03:22.443Z,6.24
2023-03-21T20:06:03.318Z,6.16
2023-03-21T20:08:58.031Z,6.06
2023-03-21T20:11:28.875Z,6.05
2023-03-21T20:14:03.485Z,6.01
2023-03-21T20:16:34.733Z,5.96
2023-03-21T20:19:09.232Z,6.04
2023-03-21T20:21:48.528Z,5.93
2023-03-21T20:24:27.282Z,5.74
2023-03-21T20:27:00.331Z,5.66
2023-03-21T20:32:21.657Z,5.57
2023-03-21T20:35:02.645Z,5.55
2023-03-21T20:37:45.992Z,5.52
2023-03-21T20:40:18.375Z,5.47
2023-03-21T20:42:50.691Z,5.35
2023-03-21T20:45:22.040Z,5.38
2023-03-21T20:47:58.103Z,5.36
2023-03-21T20:50:33.083Z,5.27
2023-03-21T20:53:07.279Z,5.31
2023-03-21T20:55:39.932Z,5.27
2023-03-21T20:58:36.738Z,5.20
2023-03-21T21:01:04.874Z,5.17
2023-03-21T21:03:39.261Z,5.21
2023-03-21T21:06:15.126Z,5.31
2023-03-21T21:08:47.703Z,5.26
2023-03-21T21:12:04.742Z,5.11
2023-03-21T21:14:08.605Z,5.05
2023-03-21T21:16:41.329Z,4.99
2023-03-21T21:19:10.357Z,4.84
2023-03-21T21:21:39.478Z,4.82
2023-03-21T21:24:10.983Z,4.84
2023-03-21T21:26:45.901Z,4.87
2023-03-21T21:29:16.776Z,4.82
2023-03-21T21:31:48.483Z,4.77
2023-03-21T21:34:18.427Z,4.73
2023-03-21T21:36:47.651Z,4.61
2023-03-21T21:39:16.602Z,4.58
2023-03-21T21:41:45.571Z,4.56
2023-03-21T21:44:14.804Z,4.61
2023-03-21T21:46:43.631Z,4.66
2023-03-21T21:49:12.415Z,4.70
2023-03-21T21:51:41.466Z,4.70
2023-03-21T21:54:10.832Z,4.65
2023-03-21T21:56:39.602Z,4.66
2023-03-21T21:59:08.615Z,4.65
2023-03-21T22:01:38.227Z,4.62
2023-03-21T22:04:07.903Z,4.45
2023-03-21T22:06:36.738Z,4.41
2023-03-21T22:09:06.570Z,4.50
2023-03-21T22:11:35.485Z,4.59
2023-03-21T22:14:04.474Z,4.65
2023-03-21T22:16:33.547Z,4.67
2023-03-21T22:19:02.845Z,4.57
2023-03-21T22:21:31.680Z,4.50
2023-03-21T22:24:01.092Z,4.54
2023-03-21T22:26:30.093Z,4.49
2023-03-21T22:28:59.561Z,4.44
2023-03-21T22:31:28.600Z,4.42
2023-03-21T22:33:57.536Z,4.44
2023-03-21T22:36:26.778Z,4.40
2023-03-21T22:38:56.042Z,4.37
2023-03-21T22:41:24.965Z,4.41
2023-03-21T22:43:53.963Z,4.40
2023-03-21T22:46:23.163Z,4.37
2023-03-21T22:48:52.028Z,4.29
2023-03-21T22:51:21.473Z,4.19
2023-03-21T22:53:50.344Z,4.19
2023-03-21T22:56:19.191Z,4.21
2023-03-21T22:58:48.147Z,4.24
2023-03-21T23:01:17.034Z,4.21
2023-03-21T23:03:46.022Z,4.10
2023-03-21T23:06:14.974Z,4.11
2023-03-21T23:08:43.826Z,4.15
2023-03-21T23:11:12.791Z,4.24
2023-03-21T23:13:41.719Z,4.26
2023-03-21T23:16:11.319Z,4.12
2023-03-21T23:18:40.364Z,4.12
2023-03-21T23:21:12.774Z,4.04
2023-03-21T23:23:43.448Z,4.05
2023-03-21T23:26:12.818Z,4.03
2023-03-21T23:28:42.103Z,4.23
2023-03-21T23:31:13.254Z,4.22
2023-03-21T23:33:42.435Z,4.08
2023-03-21T23:36:14.219Z,3.97
2023-03-21T23:38:43.978Z,3.95
2023-03-21T23:41:14.775Z,3.86
2023-03-21T23:43:44.103Z,3.85
2023-03-21T23:46:13.871Z,3.82
2023-03-21T23:48:43.461Z,3.82
2023-03-21T23:51:14.468Z,3.71
2023-03-21T23:53:44.532Z,3.69
2023-03-21T23:56:15.692Z,3.73
2023-03-21T23:58:44.615Z,3.70
